createdAt,value
2022-10-17T00:01:06.358Z,57.87
2022-10-17T00:03:35.211Z,57.53
2022-10-17T00:06:08.872Z,57.71
2022-10-17T00:08:37.473Z,57.71
2022-10-17T00:11:08.972Z,57.49
2022-10-17T00:13:36.620Z,57.74
2022-10-17T00:16:04.732Z,57.87
2022-10-17T00:18:32.539Z,57.74
2022-10-17T00:21:00.176Z,57.63
2022-10-17T00:23:28.789Z,57.37
2022-10-17T00:26:05.541Z,57.40
2022-10-17T00:28:33.488Z,57.53
2022-10-17T00:31:03.608Z,57.25
2022-10-17T00:33:32.988Z,57.35
2022-10-17T00:36:09.081Z,57.62
2022-10-17T00:38:37.087Z,57.78
2022-10-17T00:41:05.445Z,57.38
2022-10-17T00:44:27.307Z,57.50
2022-10-17T00:46:59.831Z,57.59
2022-10-17T00:49:31.404Z,57.42
2022-10-17T00:52:02.956Z,57.69
2022-10-17T00:54:35.832Z,57.64
2022-10-17T00:57:04.822Z,57.33
2022-10-17T00:59:37.829Z,57.62
2022-10-17T01:02:08.640Z,57.58
2022-10-17T01:04:38.179Z,57.50
2022-10-17T01:07:06.672Z,57.62
2022-10-17T01:09:36.842Z,57.54
2022-10-17T01:12:11.390Z,57.22
2022-10-17T01:14:54.244Z,57.40
2022-10-17T01:17:39.729Z,57.78
2022-10-17T01:20:13.585Z,57.45
2022-10-17T01:23:00.396Z,57.67
2022-10-17T01:25:51.287Z,57.80
2022-10-17T01:28:56.756Z,57.66
2022-10-17T01:31:32.598Z,58.03
2022-10-17T01:34:12.562Z,57.68
2022-10-17T01:37:01.029Z,57.97
2022-10-17T01:39:45.649Z,57.81
2022-10-17T01:42:31.907Z,58.00
2022-10-17T01:45:13.919Z,57.71
2022-10-17T01:47:43.414Z,58.25
2022-10-17T01:50:20.178Z,58.03
2022-10-17T01:52:56.744Z,57.86
2022-10-17T01:55:39.451Z,57.83
2022-10-17T01:58:27.126Z,58.11
2022-10-17T02:00:57.795Z,58.11
2022-10-17T02:03:28.081Z,57.82
2022-10-17T02:05:56.759Z,57.92
2022-10-17T02:08:30.054Z,58.25
2022-10-17T02:11:06.336Z,58.02
2022-10-17T02:14:20.471Z,58.05
2022-10-17T02:17:06.870Z,58.41
2022-10-17T02:19:40.191Z,58.07
2022-10-17T02:22:38.205Z,58.21
2022-10-17T02:25:23.096Z,58.43
2022-10-17T02:28:18.894Z,58.75
2022-10-17T02:30:50.824Z,58.20
2022-10-17T02:33:25.358Z,58.30
2022-10-17T02:36:03.031Z,58.51
2022-10-17T02:38:32.572Z,58.66
2022-10-17T02:41:01.162Z,58.54
2022-10-17T02:43:30.553Z,58.04
2022-10-17T02:45:59.356Z,58.54
2022-10-17T02:48:49.896Z,58.49
2022-10-17T02:51:36.626Z,58.49
2022-10-17T02:54:28.593Z,58.45
2022-10-17T02:57:01.996Z,58.75
2022-10-17T03:02:06.834Z,58.57
2022-10-17T03:04:34.717Z,58.37
2022-10-17T03:07:02.429Z,58.38
2022-10-17T03:09:30.180Z,58.45
2022-10-17T03:11:58.067Z,58.53
2022-10-17T03:14:26.132Z,58.55
2022-10-17T03:16:53.734Z,58.52
2022-10-17T03:19:21.506Z,58.49
2022-10-17T03:21:49.192Z,58.46
2022-10-17T03:24:17.628Z,58.64
2022-10-17T03:29:14.658Z,58.77
2022-10-17T03:31:42.540Z,58.63
2022-10-17T03:34:11.098Z,58.66
2022-10-17T03:36:38.915Z,58.57
2022-10-17T03:39:07.020Z,58.44
2022-10-17T03:41:35.792Z,58.69
2022-10-17T03:44:03.483Z,58.55
2022-10-17T03:46:31.895Z,58.68
2022-10-17T03:49:01.422Z,58.77
2022-10-17T03:51:29.556Z,58.67
2022-10-17T03:54:03.281Z,58.56
2022-10-17T03:56:31.072Z,58.78
2022-10-17T03:59:14.434Z,58.62
2022-10-17T04:01:44.566Z,58.88
2022-10-17T04:04:13.364Z,58.58
2022-10-17T04:06:41.836Z,58.67
2022-10-17T04:09:11.550Z,58.40
2022-10-17T04:11:54.680Z,58.89
2022-10-17T04:14:23.485Z,58.54
2022-10-17T04:16:53.616Z,58.88
2022-10-17T04:19:22.479Z,58.53
2022-10-17T04:21:50.987Z,58.50
2022-10-17T04:24:20.566Z,58.52
2022-10-17T04:27:09.746Z,58.60
2022-10-17T04:29:41.411Z,58.78
2022-10-17T04:32:17.650Z,58.92
2022-10-17T04:35:05.891Z,58.87
2022-10-17T04:37:34.233Z,59.31
2022-10-17T04:40:07.973Z,59.06
2022-10-17T04:42:37.075Z,59.12
2022-10-17T04:45:05.909Z,59.14
2022-10-17T04:47:33.713Z,59.15
2022-10-17T04:50:01.565Z,59.06
2022-10-17T04:52:32.339Z,59.21
2022-10-17T04:55:00.440Z,59.17
2022-10-17T04:57:28.188Z,59.46
2022-10-17T05:00:13.330Z,59.35
2022-10-17T05:02:46.851Z,59.26
2022-10-17T05:05:15.942Z,59.34
2022-10-17T05:07:45.762Z,59.19
2022-10-17T05:10:18.460Z,59.55
2022-10-17T05:12:49.684Z,59.29
2022-10-17T05:15:19.623Z,59.45
2022-10-17T05:17:47.386Z,59.39
2022-10-17T05:20:15.184Z,59.34
2022-10-17T05:22:43.038Z,59.21
2022-10-17T05:25:12.410Z,59.24
2022-10-17T05:27:40.053Z,59.24
2022-10-17T05:30:09.606Z,59.11
2022-10-17T05:32:39.525Z,59.23
2022-10-17T05:35:08.690Z,59.17
2022-10-17T05:37:37.805Z,59.22
2022-10-17T05:40:06.695Z,59.09
2022-10-17T05:42:34.392Z,58.45
2022-10-17T05:45:03.018Z,58.88
2022-10-17T05:47:31.584Z,59.05
2022-10-17T05:49:59.784Z,59.44
2022-10-17T05:52:34.684Z,59.78
2022-10-17T05:55:10.717Z,59.36
2022-10-17T05:57:38.631Z,59.69
2022-10-17T06:00:10.840Z,59.47
2022-10-17T06:02:49.591Z,59.33
2022-10-17T06:05:19.908Z,58.92
2022-10-17T06:07:50.205Z,58.23
2022-10-17T06:10:19.113Z,57.97
2022-10-17T06:12:47.046Z,57.87
2022-10-17T06:15:15.947Z,57.80
2022-10-17T06:17:47.778Z,57.50
2022-10-17T06:20:15.722Z,57.08
2022-10-17T06:22:44.458Z,57.68
2022-10-17T06:25:17.839Z,56.86
2022-10-17T06:27:45.587Z,56.88
2022-10-17T06:30:13.781Z,56.66
2022-10-17T06:32:41.409Z,56.63
2022-10-17T06:35:09.187Z,56.52
2022-10-17T06:37:38.003Z,56.86
2022-10-17T06:40:12.157Z,56.65
2022-10-17T06:42:41.196Z,56.81
2022-10-17T06:45:34.986Z,56.75
2022-10-17T06:48:22.902Z,57.02
2022-10-17T06:50:54.548Z,57.37
2022-10-17T06:53:30.930Z,57.18
2022-10-17T06:56:11.641Z,57.64
2022-10-17T06:58:50.939Z,57.49
2022-10-17T07:01:31.710Z,57.21
2022-10-17T07:04:01.339Z,57.59
2022-10-17T07:06:30.631Z,57.79
2022-10-17T07:09:03.035Z,57.67
2022-10-17T07:11:31.150Z,57.81
2022-10-17T07:13:59.024Z,57.59
2022-10-17T07:16:26.827Z,57.73
2022-10-17T07:19:04.920Z,57.39
2022-10-17T07:21:39.003Z,57.58
2022-10-17T07:24:08.473Z,57.33
2022-10-17T07:26:36.765Z,57.11
2022-10-17T07:29:06.625Z,57.86
2022-10-17T07:31:38.843Z,58.50
2022-10-17T07:34:06.472Z,58.14
2022-10-17T07:36:34.224Z,58.08
2022-10-17T07:39:05.304Z,57.61
2022-10-17T07:41:34.058Z,57.58
2022-10-17T07:44:01.832Z,57.74
2022-10-17T07:46:35.139Z,57.44
2022-10-17T07:49:02.956Z,57.89
2022-10-17T07:51:30.723Z,57.33
2022-10-17T07:53:58.373Z,57.41
2022-10-17T07:56:26.053Z,57.64
2022-10-17T07:58:54.204Z,57.36
2022-10-17T08:01:22.016Z,57.44
2022-10-17T08:03:49.637Z,57.64
2022-10-17T08:06:17.587Z,57.64
2022-10-17T08:08:45.326Z,57.34
2022-10-17T08:11:14.527Z,57.66
2022-10-17T08:13:42.601Z,57.08
2022-10-17T08:16:12.393Z,57.29
2022-10-17T08:18:41.721Z,57.47
2022-10-17T08:21:10.233Z,57.43
2022-10-17T08:23:38.078Z,56.98
2022-10-17T08:26:10.711Z,57.03
2022-10-17T08:28:39.956Z,56.94
2022-10-17T08:31:13.916Z,57.37
2022-10-17T08:33:42.591Z,56.96
2022-10-17T08:36:12.638Z,57.42
2022-10-17T08:38:43.744Z,57.35
2022-10-17T08:41:20.588Z,57.28
2022-10-17T08:43:58.009Z,57.14
2022-10-17T08:46:33.237Z,57.08
2022-10-17T08:49:05.678Z,57.23
2022-10-17T08:51:41.331Z,57.34
2022-10-17T08:54:43.409Z,57.38
2022-10-17T08:57:16.731Z,57.25
2022-10-17T08:59:46.332Z,57.63
2022-10-17T09:02:42.080Z,57.41
2022-10-17T09:05:26.571Z,57.51
2022-10-17T09:08:19.565Z,57.29
2022-10-17T09:10:58.857Z,57.69
2022-10-17T09:13:54.185Z,57.34
2022-10-17T09:16:46.935Z,57.47
2022-10-17T09:19:23.194Z,57.56
2022-10-17T09:22:06.391Z,57.40
2022-10-17T09:24:48.382Z,57.70
2022-10-17T09:27:23.720Z,57.75
2022-10-17T09:29:55.674Z,57.53
2022-10-17T09:32:25.841Z,57.67
2022-10-17T09:34:54.041Z,58.37
2022-10-17T09:37:30.180Z,57.75
2022-10-17T09:39:58.552Z,57.99
2022-10-17T09:42:28.182Z,58.09
2022-10-17T09:45:04.957Z,57.86
2022-10-17T09:47:52.727Z,58.21
2022-10-17T09:50:26.762Z,57.87
2022-10-17T09:52:55.835Z,57.99
2022-10-17T09:55:37.615Z,57.93
2022-10-17T09:58:07.378Z,58.54
2022-10-17T10:00:44.057Z,59.25
2022-10-17T10:03:17.861Z,58.25
2022-10-17T10:06:13.437Z,57.85
2022-10-17T10:08:53.393Z,58.19
2022-10-17T10:11:44.499Z,57.95
2022-10-17T10:14:19.887Z,58.34
2022-10-17T10:16:48.321Z,57.80
2022-10-17T10:19:28.008Z,57.89
2022-10-17T10:22:00.626Z,58.19
2022-10-17T10:24:31.058Z,58.31
2022-10-17T10:27:03.198Z,58.05
2022-10-17T10:29:37.024Z,58.19
2022-10-17T10:32:22.919Z,58.34
2022-10-17T10:35:03.919Z,58.32
2022-10-17T10:37:41.351Z,58.71
2022-10-17T10:40:18.673Z,58.90
2022-10-17T10:42:51.893Z,58.56
2022-10-17T10:48:26.705Z,58.79
2022-10-17T10:50:54.301Z,58.75
2022-10-17T10:53:45.880Z,59.32
2022-10-17T10:56:20.946Z,59.45
2022-10-17T10:59:02.067Z,59.56
2022-10-17T11:01:47.037Z,59.67
2022-10-17T11:04:45.091Z,59.63
2022-10-17T11:07:15.768Z,59.49
2022-10-17T11:09:58.610Z,59.46
2022-10-17T11:15:17.469Z,59.14
2022-10-17T11:18:02.986Z,59.04
2022-10-17T11:20:44.792Z,58.91
2022-10-17T11:23:19.961Z,58.82
2022-10-17T11:25:50.908Z,58.84
2022-10-17T11:28:20.590Z,58.83
2022-10-17T11:31:11.711Z,59.15
2022-10-17T11:33:39.361Z,59.29
2022-10-17T11:36:09.968Z,58.87
2022-10-17T11:38:52.759Z,58.71
2022-10-17T11:41:40.407Z,59.08
2022-10-17T11:44:29.015Z,59.16
2022-10-17T11:47:28.529Z,59.20
2022-10-17T11:53:14.660Z,58.79
2022-10-17T11:55:43.626Z,58.54
2022-10-17T11:58:17.007Z,58.83
2022-10-17T12:01:03.355Z,58.86
2022-10-17T12:03:40.234Z,58.61
2022-10-17T12:06:17.520Z,58.59
2022-10-17T12:08:50.022Z,58.60
2022-10-17T12:11:50.956Z,58.74
2022-10-17T12:14:43.052Z,58.87
2022-10-17T12:17:36.976Z,58.77
2022-10-17T12:20:26.426Z,58.37
2022-10-17T12:23:03.444Z,58.38
2022-10-17T12:25:39.120Z,58.51
2022-10-17T12:28:18.851Z,58.26
2022-10-17T12:31:15.777Z,58.54
2022-10-17T12:33:47.166Z,58.78
2022-10-17T12:36:27.926Z,58.67
2022-10-17T12:39:03.753Z,58.70
2022-10-17T12:41:40.644Z,58.69
2022-10-17T12:44:14.569Z,58.52
2022-10-17T12:46:49.457Z,58.67
2022-10-17T12:49:43.481Z,59.10
2022-10-17T12:52:17.360Z,58.75
2022-10-17T12:55:00.327Z,58.93
2022-10-17T12:58:03.348Z,58.90
2022-10-17T13:01:33.309Z,58.96
2022-10-17T13:03:56.011Z,59.33
2022-10-17T13:06:29.775Z,59.48
2022-10-17T13:09:17.852Z,59.31
2022-10-17T13:11:45.743Z,59.59
2022-10-17T13:14:16.662Z,59.37
2022-10-17T13:16:53.651Z,59.50
2022-10-17T13:19:24.535Z,59.32
2022-10-17T13:21:59.825Z,59.98
2022-10-17T13:24:37.293Z,59.48
2022-10-17T13:27:08.312Z,59.82
2022-10-17T13:29:43.930Z,59.63
2022-10-17T13:32:12.530Z,59.72
2022-10-17T13:34:40.208Z,59.86
2022-10-17T13:37:13.813Z,59.64
2022-10-17T13:39:56.588Z,59.65
2022-10-17T13:42:27.681Z,59.81
2022-10-17T13:44:56.232Z,59.62
2022-10-17T13:47:27.143Z,59.54
2022-10-17T13:49:55.898Z,59.86
2022-10-17T13:52:29.491Z,59.38
2022-10-17T13:55:12.527Z,60.01
2022-10-17T13:57:41.875Z,59.71
2022-10-17T14:00:21.994Z,59.86
2022-10-17T14:02:49.715Z,59.34
2022-10-17T14:05:20.410Z,59.79
2022-10-17T14:08:15.259Z,59.41
2022-10-17T14:10:45.368Z,59.65
2022-10-17T14:13:26.677Z,59.70
2022-10-17T14:15:56.580Z,59.69
2022-10-17T14:18:36.592Z,59.36
2022-10-17T14:24:13.980Z,59.35
2022-10-17T14:26:53.610Z,59.55
2022-10-17T14:29:24.972Z,59.81
2022-10-17T14:32:02.947Z,59.49
2022-10-17T14:34:34.784Z,59.86
2022-10-17T14:37:08.760Z,59.39
2022-10-17T14:39:37.847Z,59.64
2022-10-17T14:42:05.591Z,59.85
2022-10-17T14:44:35.262Z,59.73
2022-10-17T14:47:30.919Z,59.76
2022-10-17T14:50:07.289Z,59.67
2022-10-17T14:52:35.978Z,59.66
2022-10-17T14:55:27.960Z,59.58
2022-10-17T14:57:55.826Z,59.98
2022-10-17T15:00:24.534Z,59.93
2022-10-17T15:02:53.987Z,60.14
2022-10-17T15:05:23.358Z,59.52
2022-10-17T15:07:51.606Z,59.59
2022-10-17T15:10:32.038Z,59.99
2022-10-17T15:13:26.213Z,59.56
2022-10-17T15:15:52.163Z,60.19
2022-10-17T15:18:19.949Z,59.95
2022-10-17T15:20:51.950Z,60.16
2022-10-17T15:23:27.319Z,60.05
2022-10-17T15:25:55.068Z,59.76
2022-10-17T15:28:22.587Z,59.68
2022-10-17T15:30:50.246Z,59.83
2022-10-17T15:33:17.966Z,59.89
2022-10-17T15:35:46.037Z,59.88
2022-10-17T15:38:18.270Z,60.01
2022-10-17T15:40:48.977Z,60.00
2022-10-17T15:43:19.955Z,60.34
2022-10-17T15:45:48.413Z,60.11
2022-10-17T15:48:28.414Z,60.63
2022-10-17T15:50:56.144Z,60.50
2022-10-17T15:53:25.347Z,60.49
2022-10-17T15:55:53.260Z,60.22
2022-10-17T15:58:21.258Z,60.23
2022-10-17T16:00:49.124Z,60.61
2022-10-17T16:03:16.973Z,60.71
2022-10-17T16:05:44.720Z,60.54
2022-10-17T16:08:12.370Z,60.58
2022-10-17T16:10:42.047Z,60.43
2022-10-17T16:13:20.356Z,60.65
2022-10-17T16:15:48.158Z,60.74
2022-10-17T16:18:15.790Z,60.66
2022-10-17T16:20:43.348Z,60.42
2022-10-17T16:23:13.218Z,60.80
2022-10-17T16:25:41.317Z,60.62
2022-10-17T16:28:09.329Z,60.91
2022-10-17T16:30:42.928Z,61.18
2022-10-17T16:33:11.578Z,61.02
2022-10-17T16:35:39.696Z,61.28
2022-10-17T16:38:07.806Z,61.50
2022-10-17T16:40:39.194Z,61.63
2022-10-17T16:43:10.462Z,61.63
2022-10-17T16:45:38.194Z,61.59
2022-10-17T16:48:06.196Z,61.54
2022-10-17T16:50:35.820Z,61.50
2022-10-17T16:53:04.062Z,61.32
2022-10-17T16:55:31.867Z,61.32
2022-10-17T16:58:00.150Z,61.62
2022-10-17T17:00:27.980Z,62.17
2022-10-17T17:02:55.671Z,61.85
2022-10-17T17:05:23.308Z,61.72
2022-10-17T17:07:51.784Z,61.78
2022-10-17T17:10:19.439Z,61.51
2022-10-17T17:12:47.172Z,61.66
2022-10-17T17:15:15.250Z,61.35
2022-10-17T17:17:50.496Z,61.65
2022-10-17T17:20:21.024Z,61.37
2022-10-17T17:22:50.890Z,61.44
2022-10-17T17:25:18.442Z,61.29
2022-10-17T17:27:46.103Z,61.61
2022-10-17T17:30:13.795Z,61.23
2022-10-17T17:32:41.581Z,61.60
2022-10-17T17:35:09.743Z,61.57
2022-10-17T17:37:37.597Z,61.54
2022-10-17T17:40:06.293Z,61.50
2022-10-17T17:42:33.874Z,61.39
2022-10-17T17:45:01.420Z,61.65
2022-10-17T17:47:29.890Z,62.02
2022-10-17T17:49:57.874Z,61.82
2022-10-17T17:52:25.543Z,62.16
2022-10-17T17:54:53.133Z,62.10
2022-10-17T17:57:20.890Z,61.91
2022-10-17T17:59:52.465Z,61.90
2022-10-17T18:02:20.132Z,62.01
2022-10-17T18:04:48.867Z,61.99
2022-10-17T18:07:16.413Z,62.34
2022-10-17T18:09:44.020Z,61.97
2022-10-17T18:12:11.648Z,61.90
2022-10-17T18:14:39.375Z,62.19
2022-10-17T18:17:07.093Z,61.74
2022-10-17T18:19:35.010Z,62.04
2022-10-17T18:22:02.559Z,61.86
2022-10-17T18:24:30.249Z,62.01
2022-10-17T18:26:59.980Z,61.92
2022-10-17T18:29:29.609Z,61.79
2022-10-17T18:31:57.474Z,61.93
2022-10-17T18:34:25.416Z,61.80
2022-10-17T18:36:55.681Z,61.75
2022-10-17T18:39:23.448Z,62.28
2022-10-17T18:41:51.227Z,62.15
2022-10-17T18:44:18.872Z,62.03
2022-10-17T18:46:47.141Z,62.42
2022-10-17T18:49:19.032Z,62.01
2022-10-17T18:51:47.087Z,62.05
2022-10-17T18:54:22.280Z,61.94
2022-10-17T18:56:53.024Z,61.93
2022-10-17T18:59:21.499Z,62.41
2022-10-17T19:01:49.472Z,62.31
2022-10-17T19:04:17.400Z,62.67
2022-10-17T19:06:45.283Z,62.36
2022-10-17T19:09:14.602Z,62.42
2022-10-17T19:11:43.215Z,62.10
2022-10-17T19:14:14.838Z,62.21
2022-10-17T19:16:49.258Z,62.20
2022-10-17T19:19:21.560Z,62.00
2022-10-17T19:21:50.390Z,62.11
2022-10-17T19:24:21.199Z,62.00
2022-10-17T19:26:50.544Z,62.16
2022-10-17T19:29:18.538Z,61.99
2022-10-17T19:31:47.120Z,62.37
2022-10-17T19:34:16.283Z,62.02
2022-10-17T19:36:44.071Z,62.26
2022-10-17T19:39:18.935Z,62.28
2022-10-17T19:41:48.087Z,62.00
2022-10-17T19:44:16.332Z,62.03
2022-10-17T19:46:47.146Z,62.41
2022-10-17T19:49:15.696Z,62.31
2022-10-17T19:51:44.299Z,62.30
2022-10-17T19:54:12.423Z,61.88
2022-10-17T19:56:40.434Z,62.34
2022-10-17T19:59:08.674Z,62.04
2022-10-17T20:01:41.311Z,62.01
2022-10-17T20:04:11.042Z,62.37
2022-10-17T20:06:40.348Z,62.45
2022-10-17T20:09:11.047Z,62.62
2022-10-17T20:11:41.749Z,62.21
2022-10-17T20:14:09.460Z,62.46
2022-10-17T20:16:37.219Z,62.60
2022-10-17T20:19:09.966Z,64.45
2022-10-17T20:21:39.804Z,63.50
2022-10-17T20:24:09.707Z,63.04
2022-10-17T20:26:39.176Z,62.44
2022-10-17T20:29:20.874Z,62.23
2022-10-17T20:31:49.153Z,62.57
2022-10-17T20:34:17.995Z,62.48
2022-10-17T20:36:46.761Z,62.37
2022-10-17T20:39:17.152Z,62.21
2022-10-17T20:41:45.723Z,62.30
2022-10-17T20:44:13.962Z,62.46
2022-10-17T20:46:52.710Z,62.09
2022-10-17T20:49:28.763Z,61.97
2022-10-17T20:51:56.797Z,62.15
2022-10-17T20:54:25.159Z,62.20
2022-10-17T20:56:53.385Z,62.22
2022-10-17T20:59:22.494Z,62.27
2022-10-17T21:01:50.965Z,61.71
2022-10-17T21:04:45.823Z,62.13
2022-10-17T21:07:06.291Z,62.15
2022-10-17T21:09:33.964Z,62.66
2022-10-17T21:12:05.411Z,63.05
2022-10-17T21:14:33.683Z,63.07
2022-10-17T21:17:04.947Z,63.23
2022-10-17T21:19:34.506Z,63.25
2022-10-17T21:22:03.952Z,62.64
2022-10-17T21:24:32.986Z,62.23
2022-10-17T21:27:00.736Z,62.08
2022-10-17T21:29:28.644Z,62.14
2022-10-17T21:31:58.817Z,62.00
2022-10-17T21:34:28.941Z,61.99
2022-10-17T21:36:56.957Z,61.84
2022-10-17T21:39:25.101Z,62.03
2022-10-17T21:41:53.568Z,61.74
2022-10-17T21:44:26.445Z,61.85
2022-10-17T21:46:55.985Z,61.95
2022-10-17T21:49:25.213Z,61.50
2022-10-17T21:51:53.665Z,61.61
2022-10-17T21:54:23.628Z,61.56
2022-10-17T21:56:51.649Z,61.73
2022-10-17T21:59:19.290Z,61.57
2022-10-17T22:01:46.998Z,61.78
2022-10-17T22:04:18.042Z,61.77
2022-10-17T22:06:47.171Z,61.30
2022-10-17T22:09:16.703Z,61.77
2022-10-17T22:11:47.433Z,61.80
2022-10-17T22:14:20.710Z,61.78
2022-10-17T22:16:49.415Z,61.58
2022-10-17T22:19:22.719Z,61.16
2022-10-17T22:21:50.624Z,61.29
2022-10-17T22:26:52.515Z,61.57
2022-10-17T22:29:20.514Z,61.12
2022-10-17T22:31:48.611Z,61.09
2022-10-17T22:34:19.154Z,61.44
2022-10-17T22:36:48.958Z,61.17
2022-10-17T22:39:16.946Z,61.11
2022-10-17T22:41:44.703Z,61.19
2022-10-17T22:44:12.531Z,60.90
2022-10-17T22:46:40.176Z,60.90
2022-10-17T22:49:07.850Z,61.33
2022-10-17T22:51:36.715Z,61.04
2022-10-17T22:54:04.482Z,60.80
2022-10-17T22:56:32.359Z,61.04
2022-10-17T22:59:00.100Z,61.00
2022-10-17T23:01:28.068Z,60.84
2022-10-17T23:03:55.926Z,60.91
2022-10-17T23:06:23.713Z,60.88
2022-10-17T23:08:53.324Z,60.74
2022-10-17T23:11:21.157Z,61.06
2022-10-17T23:13:48.947Z,60.86
2022-10-17T23:16:16.798Z,60.56
2022-10-17T23:18:44.574Z,60.71
2022-10-17T23:21:12.323Z,60.85
2022-10-17T23:23:40.147Z,60.56
2022-10-17T23:26:13.738Z,60.74
2022-10-17T23:28:42.701Z,60.74
2022-10-17T23:31:19.290Z,60.38
2022-10-17T23:33:49.247Z,60.65
2022-10-17T23:36:19.244Z,60.37
2022-10-17T23:38:48.173Z,60.71
2022-10-17T23:41:16.897Z,60.48
2022-10-17T23:43:45.024Z,60.81
2022-10-17T23:46:13.507Z,60.43
2022-10-17T23:48:41.522Z,60.68
2022-10-17T23:51:10.572Z,60.91
2022-10-17T23:53:39.588Z,60.99
2022-10-17T23:56:08.686Z,60.68
2022-10-17T23:58:36.989Z,60.89
